Time;durP1;ratioP1;P1;durP2;ratioP2;P2;SDS_P1;SDS_P2;PMS_P1;PMS_P2;Temp;Humidity;BMP_temperature;BMP_pressure;BME280_temperature;BME280_humidity;BME280_pressure;Samples;Min_cycle;Max_cycle;Signal;HPM_P1;HPM_P2
2021/04/03 00:01:07;;;;;;;15.00;2.30;;;;;;;;;;5004783;28;20437;-72
2021/04/03 00:03:33;;;;;;;16.67;2.45;;;;;;;;;;5003536;28;20026;-72
2021/04/03 00:05:59;;;;;;;16.88;2.55;;;;;;;;;;5012820;28;20050;-73
2021/04/03 00:08:25;;;;;;;18.65;3.25;;;;;;;;;;5004694;28;20026;-73
2021/04/03 00:10:59;;;;;;;22.23;2.92;;;;;;;;;;5000242;28;20037;-73
2021/04/03 00:13:27;;;;;;;20.45;3.10;;;;;;;;;;4992960;28;20057;-73
2021/04/03 00:15:53;;;;;;;19.20;4.35;;;;;;;;;;5005370;28;20026;-73
2021/04/03 00:18:19;;;;;;;14.82;2.22;;;;;;;;;;5008316;28;20440;-74
2021/04/03 00:20:46;;;;;;;21.88;2.67;;;;;;;;;;4996507;28;20664;-73
2021/04/03 00:23:13;;;;;;;15.40;2.92;;;;;;;;;;5002200;28;20034;-72
2021/04/03 00:25:39;;;;;;;20.65;2.15;;;;;;;;;;5002943;28;20027;-73
2021/04/03 00:28:05;;;;;;;8.43;2.40;;;;;;;;;;4990372;28;20029;-73
2021/04/03 00:30:31;;;;;;;17.63;3.13;;;;;;;;;;5007684;28;20037;-73
2021/04/03 00:32:58;;;;;;;24.38;2.97;;;;;;;;;;5008522;28;20113;-73
2021/04/03 00:35:25;;;;;;;11.80;2.15;;;;;;;;;;4994003;28;20030;-73
2021/04/03 00:37:53;;;;;;;17.27;2.53;;;;;;;;;;4989214;28;20031;-73
2021/04/03 00:40:19;;;;;;;17.80;2.60;;;;;;;;;;5008117;28;20018;-73
2021/04/03 00:42:45;;;;;;;13.63;2.22;;;;;;;;;;5002035;28;20057;-75
2021/04/03 00:45:12;;;;;;;23.00;3.55;;;;;;;;;;4988397;28;20030;-73
2021/04/03 00:47:38;;;;;;;16.92;2.63;;;;;;;;;;5002382;28;20547;-73
2021/04/03 00:50:04;;;;;;;12.10;3.10;;;;;;;;;;4997456;28;20399;-73
2021/04/03 00:52:30;;;;;;;16.23;3.70;;;;;;;;;;4994966;28;20026;-73
2021/04/03 00:54:56;;;;;;;12.38;2.40;;;;;;;;;;5008338;28;20033;-72
2021/04/03 00:57:22;;;;;;;21.52;2.92;;;;;;;;;;4990726;28;20035;-73
2021/04/03 00:59:48;;;;;;;13.35;2.97;;;;;;;;;;4998974;28;20026;-73
2021/04/03 01:02:14;;;;;;;20.05;3.33;;;;;;;;;;4997752;28;20495;-72
2021/04/03 01:04:40;;;;;;;17.98;2.60;;;;;;;;;;5006556;28;20110;-73
2021/04/03 01:07:06;;;;;;;14.35;2.88;;;;;;;;;;4997597;28;20029;-73
2021/04/03 01:09:39;;;;;;;18.55;2.55;;;;;;;;;;5001653;28;20072;-72
2021/04/03 01:12:24;;;;;;;26.65;5.95;;;;;;;;;;5008690;28;20061;-72
2021/04/03 01:15:02;;;;;;;20.15;4.78;;;;;;;;;;5000770;28;20080;-73
2021/04/03 01:17:32;;;;;;;18.33;3.83;;;;;;;;;;5001648;28;20101;-72
2021/04/03 01:20:13;;;;;;;27.98;3.65;;;;;;;;;;4996660;28;20011;-73
2021/04/03 01:22:52;;;;;;;25.85;3.90;;;;;;;;;;5001478;28;20030;-73
2021/04/03 01:25:24;;;;;;;23.05;3.05;;;;;;;;;;4992226;28;20114;-73
2021/04/03 01:27:53;;;;;;;24.00;3.80;;;;;;;;;;4999884;28;20117;-73
2021/04/03 01:30:23;;;;;;;14.77;3.13;;;;;;;;;;5002098;28;20076;-73
2021/04/03 01:32:57;;;;;;;20.75;3.90;;;;;;;;;;4994914;28;20034;-73
2021/04/03 01:35:35;;;;;;;24.73;3.70;;;;;;;;;;4996769;28;20035;-73
2021/04/03 01:38:03;;;;;;;17.85;3.50;;;;;;;;;;5001962;28;20042;-74
2021/04/03 01:40:29;;;;;;;17.25;4.78;;;;;;;;;;4995505;28;20022;-73
2021/04/03 01:43:02;;;;;;;23.20;3.63;;;;;;;;;;5003414;28;20033;-73
2021/04/03 01:45:28;;;;;;;16.38;2.80;;;;;;;;;;5008499;28;20452;-73
2021/04/03 01:47:55;;;;;;;19.20;2.67;;;;;;;;;;5001661;28;20484;-73
2021/04/03 01:50:22;;;;;;;21.75;4.60;;;;;;;;;;5010676;28;20112;-73
2021/04/03 01:52:49;;;;;;;20.58;3.40;;;;;;;;;;5000080;28;20033;-73
2021/04/03 01:55:15;;;;;;;20.10;3.20;;;;;;;;;;5001997;28;20034;-74
2021/04/03 01:57:45;;;;;;;20.48;3.65;;;;;;;;;;5005892;28;20452;-73
2021/04/03 02:00:12;;;;;;;20.48;3.88;;;;;;;;;;5010618;28;20441;-73
2021/04/03 02:02:39;;;;;;;16.35;3.75;;;;;;;;;;5008835;28;20068;-73
2021/04/03 02:05:05;;;;;;;24.23;3.95;;;;;;;;;;4997739;28;20032;-73
2021/04/03 02:07:31;;;;;;;18.80;3.60;;;;;;;;;;5003569;28;20037;-73
2021/04/03 02:09:58;;;;;;;23.35;3.40;;;;;;;;;;4994340;28;20100;-73
2021/04/03 02:12:24;;;;;;;20.35;3.60;;;;;;;;;;5009907;28;20030;-73
2021/04/03 02:14:51;;;;;;;18.65;3.70;;;;;;;;;;4996947;28;20036;-73
2021/04/03 02:17:18;;;;;;;18.08;3.63;;;;;;;;;;4997264;28;20084;-73
2021/04/03 02:19:44;;;;;;;22.88;5.78;;;;;;;;;;5004852;28;20017;-74
2021/04/03 02:22:17;;;;;;;21.00;3.40;;;;;;;;;;4998869;28;20390;-73
2021/04/03 02:24:44;;;;;;;17.42;3.60;;;;;;;;;;5001649;28;20026;-73
2021/04/03 02:27:10;;;;;;;18.02;2.88;;;;;;;;;;5025075;28;20026;-73
2021/04/03 02:29:36;;;;;;;21.50;2.53;;;;;;;;;;5002079;28;20073;-73
2021/04/03 02:32:03;;;;;;;16.10;2.72;;;;;;;;;;5008943;28;20030;-73
2021/04/03 02:34:29;;;;;;;15.55;3.85;;;;;;;;;;5009518;28;20105;-73
2021/04/03 02:36:54;;;;;;;15.13;2.90;;;;;;;;;;5008200;28;20435;-73
2021/04/03 02:39:20;;;;;;;21.05;2.83;;;;;;;;;;4998324;28;20387;-73
2021/04/03 02:41:56;;;;;;;19.83;2.50;;;;;;;;;;4995492;28;20602;-73
2021/04/03 02:44:27;;;;;;;19.35;2.97;;;;;;;;;;4997832;28;20069;-74
2021/04/03 02:46:55;;;;;;;20.98;3.55;;;;;;;;;;5008416;28;20038;-73
2021/04/03 02:49:28;;;;;;;22.73;3.47;;;;;;;;;;4998374;28;20418;-73
2021/04/03 02:51:55;;;;;;;24.52;3.88;;;;;;;;;;5001513;28;20029;-73
2021/04/03 02:54:22;;;;;;;15.70;3.67;;;;;;;;;;5006201;28;20124;-73
2021/04/03 02:56:48;;;;;;;25.90;3.90;;;;;;;;;;5007722;28;20037;-73
2021/04/03 02:59:22;;;;;;;16.17;2.63;;;;;;;;;;4999717;28;20505;-73
2021/04/03 03:01:49;;;;;;;26.30;5.65;;;;;;;;;;5009799;28;20028;-73
2021/04/03 03:04:19;;;;;;;21.30;3.58;;;;;;;;;;4999711;28;20025;-73
2021/04/03 03:06:45;;;;;;;;;;;;;;;;;;5008588;28;20383;-73
2021/04/03 03:09:13;;;;;;;14.25;2.20;;;;;;;;;;5003538;28;19905;-73
2021/04/03 03:11:43;;;;;;;20.65;3.88;;;;;;;;;;5008402;28;20022;-73
2021/04/03 03:14:09;;;;;;;;;;;;;;;;;;5002129;28;20018;-73
2021/04/03 03:16:35;;;;;;;27.35;4.32;;;;;;;;;;5006173;28;19916;-73
2021/04/03 03:19:01;;;;;;;15.18;2.90;;;;;;;;;;5009068;28;20025;-73
2021/04/03 03:21:28;;;;;;;14.25;3.10;;;;;;;;;;5001014;28;20061;-73
2021/04/03 03:23:54;;;;;;;15.02;2.83;;;;;;;;;;5000806;28;20502;-73
2021/04/03 03:26:20;;;;;;;22.63;3.58;;;;;;;;;;5008950;28;20061;-73
2021/04/03 03:28:48;;;;;;;17.17;3.65;;;;;;;;;;5000864;28;20049;-73
2021/04/03 03:31:14;;;;;;;14.82;2.85;;;;;;;;;;5008938;28;20022;-73
2021/04/03 03:33:40;;;;;;;18.42;2.92;;;;;;;;;;4994634;28;20032;-73
2021/04/03 03:36:07;;;;;;;25.15;4.40;;;;;;;;;;5004542;28;20034;-74
2021/04/03 03:38:33;;;;;;;21.83;4.03;;;;;;;;;;5003795;28;20109;-73
2021/04/03 03:41:00;;;;;;;21.77;3.85;;;;;;;;;;5008933;28;20105;-73
2021/04/03 03:43:26;;;;;;;18.65;3.25;;;;;;;;;;5002203;28;20030;-73
2021/04/03 03:45:52;;;;;;;16.40;3.53;;;;;;;;;;5007029;28;20037;-73
2021/04/03 03:48:18;;;;;;;19.70;3.90;;;;;;;;;;5003742;28;20027;-73
2021/04/03 03:50:44;;;;;;;23.63;3.22;;;;;;;;;;5004061;28;20109;-73
2021/04/03 03:53:10;;;;;;;28.63;5.82;;;;;;;;;;4997352;28;20077;-73
2021/04/03 03:55:36;;;;;;;14.82;2.60;;;;;;;;;;5003005;28;20440;-73
2021/04/03 03:58:02;;;;;;;15.57;3.97;;;;;;;;;;4997882;28;20483;-73
2021/04/03 04:00:28;;;;;;;20.33;4.60;;;;;;;;;;5006791;28;20438;-73
2021/04/03 04:02:53;;;;;;;27.45;4.20;;;;;;;;;;5006385;28;20053;-73
2021/04/03 04:05:19;;;;;;;32.05;4.22;;;;;;;;;;5008913;28;20406;-73
2021/04/03 04:07:45;;;;;;;22.95;3.40;;;;;;;;;;4996777;28;20061;-73
2021/04/03 04:10:12;;;;;;;28.90;5.38;;;;;;;;;;5000566;28;20026;-73
2021/04/03 04:12:38;;;;;;;26.48;3.65;;;;;;;;;;5006308;28;20479;-73
2021/04/03 04:15:06;;;;;;;26.77;4.15;;;;;;;;;;4997892;28;20495;-73
2021/04/03 04:17:31;;;;;;;18.80;4.43;;;;;;;;;;4995343;28;20547;-73
2021/04/03 04:19:57;;;;;;;23.83;5.07;;;;;;;;;;4990757;28;20026;-74
2021/04/03 04:22:23;;;;;;;21.23;3.00;;;;;;;;;;4995207;28;20033;-73
2021/04/03 04:24:49;;;;;;;27.60;4.55;;;;;;;;;;5006374;28;20026;-73
2021/04/03 04:27:16;;;;;;;23.70;5.82;;;;;;;;;;4992518;28;20034;-73
2021/04/03 04:29:42;;;;;;;17.65;3.25;;;;;;;;;;5000723;28;20041;-73
2021/04/03 04:32:08;;;;;;;23.80;3.65;;;;;;;;;;5008330;28;20027;-73
2021/04/03 04:34:34;;;;;;;29.92;6.68;;;;;;;;;;5008631;28;20029;-74
2021/04/03 04:37:00;;;;;;;31.00;4.97;;;;;;;;;;5003327;28;20506;-73
2021/04/03 04:39:25;;;;;;;24.88;4.88;;;;;;;;;;4996222;28;20050;-73
2021/04/03 04:41:51;;;;;;;28.08;4.18;;;;;;;;;;4996693;28;20050;-73
2021/04/03 04:44:17;;;;;;;20.77;4.05;;;;;;;;;;4998097;28;20025;-73
2021/04/03 04:46:43;;;;;;;29.60;4.75;;;;;;;;;;5008209;28;20088;-73
2021/04/03 04:49:09;;;;;;;21.08;5.75;;;;;;;;;;4999419;28;20029;-73
2021/04/03 04:51:35;;;;;;;34.10;4.53;;;;;;;;;;5001417;28;20109;-73
2021/04/03 04:54:01;;;;;;;26.70;6.68;;;;;;;;;;4998619;28;20853;-73
2021/04/03 04:56:27;;;;;;;19.35;3.80;;;;;;;;;;5005938;28;20078;-73
2021/04/03 04:58:53;;;;;;;24.83;4.50;;;;;;;;;;5010235;28;20030;-73
2021/04/03 05:01:19;;;;;;;31.35;4.65;;;;;;;;;;5009243;28;20463;-73
2021/04/03 05:03:45;;;;;;;22.77;5.10;;;;;;;;;;5022477;28;20018;-74
2021/04/03 05:06:11;;;;;;;27.67;4.68;;;;;;;;;;5028936;28;20089;-73
2021/04/03 05:08:37;;;;;;;27.45;4.15;;;;;;;;;;5024679;28;20026;-73
2021/04/03 05:11:03;;;;;;;22.10;3.63;;;;;;;;;;5033672;28;20026;-73
2021/04/03 05:13:29;;;;;;;32.90;5.07;;;;;;;;;;5034624;28;20054;-74
2021/04/03 05:15:55;;;;;;;32.53;4.10;;;;;;;;;;5024115;28;20010;-73
2021/04/03 05:18:21;;;;;;;29.30;4.68;;;;;;;;;;5025230;28;20045;-74
2021/04/03 05:20:47;;;;;;;30.33;5.68;;;;;;;;;;5018986;28;20033;-73
2021/04/03 05:23:16;;;;;;;31.13;5.32;;;;;;;;;;5026582;28;20016;-73
2021/04/03 05:25:42;;;;;;;27.88;4.60;;;;;;;;;;5034116;28;20021;-73
2021/04/03 05:28:08;;;;;;;26.88;5.38;;;;;;;;;;5014310;28;20026;-73
2021/04/03 05:30:33;;;;;;;28.95;4.80;;;;;;;;;;5043886;28;20022;-73
2021/04/03 05:32:59;;;;;;;27.52;4.05;;;;;;;;;;5015978;28;20041;-73
2021/04/03 05:35:25;;;;;;;27.95;4.00;;;;;;;;;;5029109;28;20036;-73
2021/04/03 05:37:51;;;;;;;32.28;5.93;;;;;;;;;;5015569;28;20275;-73
2021/04/03 05:40:17;;;;;;;32.58;4.80;;;;;;;;;;5031544;28;20025;-73
2021/04/03 05:42:45;;;;;;;40.00;5.07;;;;;;;;;;5016057;28;20029;-73
2021/04/03 05:45:14;;;;;;;22.73;4.13;;;;;;;;;;5018795;28;20026;-74
2021/04/03 05:47:40;;;;;;;29.65;5.25;;;;;;;;;;5025040;28;20030;-73
2021/04/03 05:50:06;;;;;;;28.25;4.90;;;;;;;;;;5008577;28;20041;-73
2021/04/03 05:52:33;;;;;;;25.17;4.13;;;;;;;;;;5014904;28;20030;-73
2021/04/03 05:55:01;;;;;;;32.85;5.78;;;;;;;;;;5022487;28;20030;-73
2021/04/03 05:57:27;;;;;;;27.17;4.72;;;;;;;;;;4996492;28;20113;-73
2021/04/03 05:59:52;;;;;;;33.08;5.85;;;;;;;;;;5001948;28;20595;-73
2021/04/03 06:02:18;;;;;;;29.88;4.95;;;;;;;;;;5002447;28;20137;-73
2021/04/03 06:04:44;;;;;;;30.60;6.70;;;;;;;;;;5013328;28;20033;-73
2021/04/03 06:07:10;;;;;;;28.77;5.10;;;;;;;;;;5011321;28;20040;-73
2021/04/03 06:09:37;;;;;;;26.50;5.95;;;;;;;;;;5011212;28;20029;-73
2021/04/03 06:12:04;;;;;;;33.33;6.10;;;;;;;;;;4993088;28;20368;-73
2021/04/03 06:14:35;;;;;;;22.15;4.22;;;;;;;;;;5001025;28;20022;-73
2021/04/03 06:17:01;;;;;;;27.20;4.72;;;;;;;;;;4999556;28;20041;-73
2021/04/03 06:19:27;;;;;;;23.55;4.93;;;;;;;;;;4999705;28;20026;-73
2021/04/03 06:21:53;;;;;;;20.30;4.13;;;;;;;;;;5008376;28;20481;-73
2021/04/03 06:24:19;;;;;;;23.20;4.78;;;;;;;;;;5010032;28;20121;-73
2021/04/03 06:26:52;;;;;;;20.08;5.28;;;;;;;;;;5004674;28;20030;-73
2021/04/03 06:29:22;;;;;;;32.97;6.15;;;;;;;;;;5008692;28;20065;-73
2021/04/03 06:31:52;;;;;;;37.40;5.60;;;;;;;;;;5000311;28;20027;-73
2021/04/03 06:34:28;;;;;;;28.10;5.38;;;;;;;;;;5002574;28;20022;-73
2021/04/03 06:36:54;;;;;;;27.35;5.43;;;;;;;;;;4999254;28;20037;-73
2021/04/03 06:39:21;;;;;;;26.35;5.25;;;;;;;;;;5004184;28;20018;-73
2021/04/03 06:41:47;;;;;;;26.65;5.72;;;;;;;;;;5003760;28;20097;-74
2021/04/03 06:44:13;;;;;;;27.17;4.65;;;;;;;;;;5002781;28;20042;-73
2021/04/03 06:46:43;;;;;;;25.58;5.05;;;;;;;;;;5003883;28;20029;-73
2021/04/03 06:49:10;;;;;;;25.92;4.45;;;;;;;;;;5001530;28;20030;-73
2021/04/03 06:51:36;;;;;;;22.10;5.05;;;;;;;;;;5006404;28;20100;-74
2021/04/03 06:54:03;;;;;;;23.33;4.38;;;;;;;;;;5000486;28;20027;-74
2021/04/03 06:56:36;;;;;;;20.02;5.40;;;;;;;;;;5000090;28;20045;-73
2021/04/03 06:59:04;;;;;;;23.90;4.30;;;;;;;;;;5003789;28;20206;-73
2021/04/03 07:01:37;;;;;;;21.73;4.72;;;;;;;;;;5006853;28;20065;-73
2021/04/03 07:04:09;;;;;;;24.83;4.03;;;;;;;;;;5006740;28;20026;-73
2021/04/03 07:06:36;;;;;;;20.10;4.95;;;;;;;;;;5006804;28;20526;-73
2021/04/03 07:09:04;;;;;;;19.92;5.07;;;;;;;;;;5006071;28;20030;-73
2021/04/03 07:11:30;;;;;;;22.20;4.30;;;;;;;;;;5007330;28;20053;-73
2021/04/03 07:13:58;;;;;;;20.77;4.03;;;;;;;;;;5006145;28;20034;-73
2021/04/03 07:16:24;;;;;;;18.55;4.45;;;;;;;;;;5005621;28;20391;-73
2021/04/03 07:18:51;;;;;;;29.15;5.75;;;;;;;;;;5006022;28;20032;-73
2021/04/03 07:21:17;;;;;;;23.55;4.85;;;;;;;;;;5003955;28;20026;-73
2021/04/03 07:23:43;;;;;;;21.33;3.80;;;;;;;;;;5004136;28;20037;-74
2021/04/03 07:26:12;;;;;;;14.27;3.72;;;;;;;;;;5001261;28;20073;-73
2021/04/03 07:28:38;;;;;;;23.88;4.78;;;;;;;;;;5002677;28;20042;-73
2021/04/03 07:31:05;;;;;;;22.02;4.30;;;;;;;;;;5002251;28;20037;-74
2021/04/03 07:33:31;;;;;;;22.35;4.05;;;;;;;;;;4999994;28;20026;-73
2021/04/03 07:35:58;;;;;;;22.60;5.22;;;;;;;;;;5003860;28;20057;-74
2021/04/03 07:38:50;;;;;;;15.95;3.97;;;;;;;;;;5001134;28;20102;-74
2021/04/03 07:41:17;;;;;;;18.63;4.22;;;;;;;;;;4999872;28;20038;-73
2021/04/03 07:43:49;;;;;;;19.75;4.32;;;;;;;;;;5003838;28;20068;-73
2021/04/03 07:46:21;;;;;;;17.00;3.80;;;;;;;;;;5000383;28;20020;-74
2021/04/03 07:48:51;;;;;;;14.05;3.50;;;;;;;;;;5001771;28;20104;-73
2021/04/03 07:51:23;;;;;;;19.95;4.20;;;;;;;;;;5001738;28;20478;-74
2021/04/03 07:53:50;;;;;;;13.73;3.08;;;;;;;;;;5001557;28;20100;-73
2021/04/03 07:56:18;;;;;;;22.08;4.10;;;;;;;;;;5001199;28;20077;-73
2021/04/03 07:58:48;;;;;;;22.75;4.72;;;;;;;;;;4999975;28;20403;-73
2021/04/03 08:01:14;;;;;;;18.70;3.50;;;;;;;;;;4999803;28;20023;-73
2021/04/03 08:03:40;;;;;;;18.55;3.95;;;;;;;;;;5005195;28;20448;-74
2021/04/03 08:06:09;;;;;;;17.77;3.75;;;;;;;;;;5002840;28;20526;-74
2021/04/03 08:08:39;;;;;;;14.52;3.83;;;;;;;;;;5002259;28;20064;-73
2021/04/03 08:11:18;;;;;;;13.80;3.38;;;;;;;;;;5004010;28;20028;-73
2021/04/03 08:13:45;;;;;;;15.02;3.85;;;;;;;;;;5005396;28;20041;-74
2021/04/03 08:16:13;;;;;;;24.08;4.65;;;;;;;;;;5005422;28;20038;-74
2021/04/03 08:18:40;;;;;;;21.75;4.43;;;;;;;;;;5005502;28;20060;-74
2021/04/03 08:21:07;;;;;;;19.70;4.35;;;;;;;;;;5003691;28;20018;-74
2021/04/03 08:23:37;;;;;;;18.90;3.88;;;;;;;;;;5004481;28;20283;-74
2021/04/03 08:26:04;;;;;;;17.73;3.28;;;;;;;;;;4999527;28;20026;-74
2021/04/03 08:28:31;;;;;;;20.80;4.03;;;;;;;;;;5003930;28;20034;-75
2021/04/03 08:30:57;;;;;;;15.20;3.88;;;;;;;;;;5005132;28;20503;-75
2021/04/03 08:33:23;;;;;;;15.32;3.83;;;;;;;;;;5006110;28;20040;-74
2021/04/03 08:35:51;;;;;;;18.75;3.95;;;;;;;;;;5005288;28;20116;-74
2021/04/03 08:38:18;;;;;;;17.20;3.60;;;;;;;;;;5004010;28;20033;-73
2021/04/03 08:40:45;;;;;;;15.30;3.58;;;;;;;;;;5004185;28;20026;-71
2021/04/03 08:43:21;;;;;;;17.38;4.22;;;;;;;;;;5006567;28;20037;-71
2021/04/03 08:45:48;;;;;;;17.90;3.40;;;;;;;;;;5006341;28;20033;-71
2021/04/03 08:48:14;;;;;;;18.45;3.60;;;;;;;;;;5005836;28;20041;-71
2021/04/03 08:50:44;;;;;;;19.55;4.25;;;;;;;;;;5006523;28;20034;-71
2021/04/03 08:53:10;;;;;;;16.63;3.20;;;;;;;;;;5006849;28;20053;-71
2021/04/03 08:55:36;;;;;;;21.35;4.05;;;;;;;;;;5005912;28;20127;-71
2021/04/03 08:58:02;;;;;;;23.05;5.32;;;;;;;;;;5004829;28;20032;-71
2021/04/03 09:00:29;;;;;;;18.55;4.07;;;;;;;;;;5000940;28;20054;-71
2021/04/03 09:02:55;;;;;;;14.65;3.65;;;;;;;;;;5003286;28;20021;-71
2021/04/03 09:05:22;;;;;;;17.73;3.92;;;;;;;;;;5004933;28;20189;-71
2021/04/03 09:07:48;;;;;;;20.08;4.25;;;;;;;;;;5002491;28;20061;-71
2021/04/03 09:10:19;;;;;;;20.67;4.40;;;;;;;;;;5005790;28;20021;-71
2021/04/03 09:12:45;;;;;;;14.35;3.85;;;;;;;;;;5004205;28;20033;-71
2021/04/03 09:15:12;;;;;;;38.60;4.38;;;;;;;;;;5008837;28;20486;-71
2021/04/03 09:17:48;;;;;;;17.00;4.22;;;;;;;;;;5009671;28;20037;-72
2021/04/03 09:20:17;;;;;;;17.15;4.05;;;;;;;;;;5010458;28;20100;-71
2021/04/03 09:22:43;;;;;;;28.00;4.25;;;;;;;;;;5010179;28;20033;-71
2021/04/03 09:25:14;;;;;;;15.55;4.22;;;;;;;;;;5007744;28;20100;-72
2021/04/03 09:27:41;;;;;;;16.45;3.45;;;;;;;;;;5005615;28;20034;-71
2021/04/03 09:30:10;;;;;;;17.20;3.65;;;;;;;;;;5009017;28;20395;-71
2021/04/03 09:32:36;;;;;;;;;;;;;;;;;;5010723;28;20029;-69
2021/04/03 09:35:03;;;;;;;15.95;3.70;;;;;;;;;;5039861;28;20385;-70
2021/04/03 09:37:29;;;;;;;20.85;4.50;;;;;;;;;;5007751;28;20037;-69
2021/04/03 09:39:56;;;;;;;19.33;3.40;;;;;;;;;;5008410;28;20498;-69
2021/04/03 09:42:26;;;;;;;18.23;4.03;;;;;;;;;;5008550;28;20026;-69
2021/04/03 09:44:59;;;;;;;14.38;3.80;;;;;;;;;;5008953;28;20025;-69
2021/04/03 09:47:26;;;;;;;17.60;3.55;;;;;;;;;;5008320;28;20034;-69
2021/04/03 09:49:52;;;;;;;12.05;4.00;;;;;;;;;;5007779;28;20495;-70
2021/04/03 09:52:19;;;;;;;19.98;4.43;;;;;;;;;;5006247;28;20069;-70
2021/04/03 09:59:56;;;;;;;16.27;3.22;;;;;;;;;;5438453;23;20061;-70
2021/04/03 10:02:22;;;;;;;14.77;2.80;;;;;;;;;;4989229;28;20042;-69
2021/04/03 10:04:48;;;;;;;14.02;3.03;;;;;;;;;;4992087;28;20034;-69
2021/04/03 10:07:14;;;;;;;17.08;2.92;;;;;;;;;;4993471;28;20029;-69
2021/04/03 10:09:40;;;;;;;14.45;3.72;;;;;;;;;;4990907;28;20042;-70
2021/04/03 10:12:06;;;;;;;18.63;3.90;;;;;;;;;;4993778;28;20036;-70
2021/04/03 10:14:32;;;;;;;11.93;3.22;;;;;;;;;;4994320;28;20026;-69
2021/04/03 10:16:58;;;;;;;16.52;3.15;;;;;;;;;;4995199;28;20042;-69
2021/04/03 10:19:24;;;;;;;14.65;4.10;;;;;;;;;;5000987;28;20032;-72
2021/04/03 10:21:50;;;;;;;18.40;4.30;;;;;;;;;;4998026;28;20034;-71
2021/04/03 10:24:16;;;;;;;13.65;3.88;;;;;;;;;;4998337;28;20399;-72
2021/04/03 10:26:42;;;;;;;20.65;4.90;;;;;;;;;;4998790;28;20237;-71
2021/04/03 10:29:08;;;;;;;12.70;3.55;;;;;;;;;;5001411;28;20041;-71
2021/04/03 10:31:34;;;;;;;14.85;3.97;;;;;;;;;;4997577;28;20044;-72
2021/04/03 10:34:00;;;;;;;17.10;3.90;;;;;;;;;;5005215;28;20442;-71
2021/04/03 10:36:26;;;;;;;18.92;3.95;;;;;;;;;;4993891;28;20026;-71
2021/04/03 10:38:52;;;;;;;15.98;4.43;;;;;;;;;;4994083;28;20030;-71
2021/04/03 10:41:18;;;;;;;19.40;4.30;;;;;;;;;;4999208;28;20099;-70
2021/04/03 10:43:44;;;;;;;20.20;3.95;;;;;;;;;;4999331;28;20021;-70
2021/04/03 10:46:10;;;;;;;15.13;4.20;;;;;;;;;;4997240;28;20034;-69
2021/04/03 10:48:36;;;;;;;23.08;4.25;;;;;;;;;;4997331;28;20026;-69
2021/04/03 10:51:03;;;;;;;24.70;3.92;;;;;;;;;;4996392;28;20044;-69
2021/04/03 10:53:29;;;;;;;19.45;4.10;;;;;;;;;;4991664;28;20103;-69
2021/04/03 10:55:55;;;;;;;17.20;3.63;;;;;;;;;;4995834;28;21559;-71
2021/04/03 10:58:21;;;;;;;15.88;3.33;;;;;;;;;;4997505;28;20029;-68
2021/04/03 11:00:47;;;;;;;17.27;3.50;;;;;;;;;;4990878;28;20030;-69
2021/04/03 11:03:13;;;;;;;19.75;3.63;;;;;;;;;;4994037;28;20030;-70
2021/04/03 11:05:39;;;;;;;13.23;4.00;;;;;;;;;;4988843;28;20019;-70
2021/04/03 11:08:05;;;;;;;22.77;3.35;;;;;;;;;;5003895;28;20474;-70
2021/04/03 11:10:31;;;;;;;24.83;4.95;;;;;;;;;;4998473;28;20069;-70
2021/04/03 11:12:58;;;;;;;18.73;4.30;;;;;;;;;;5002033;28;20917;-70
2021/04/03 11:15:24;;;;;;;13.02;3.13;;;;;;;;;;4998363;28;20123;-70
2021/04/03 11:17:51;;;;;;;15.50;3.03;;;;;;;;;;4998012;28;20488;-70
2021/04/03 11:20:18;;;;;;;14.52;3.60;;;;;;;;;;5007119;28;20380;-70
2021/04/03 11:22:44;;;;;;;13.23;2.55;;;;;;;;;;4998516;28;20029;-70
2021/04/03 11:25:10;;;;;;;16.38;3.80;;;;;;;;;;5001160;28;20554;-70
2021/04/03 11:27:36;;;;;;;15.98;3.92;;;;;;;;;;5002642;28;20076;-70
2021/04/03 11:30:13;;;;;;;16.73;3.75;;;;;;;;;;5001387;28;20530;-70
2021/04/03 11:32:40;;;;;;;14.15;3.63;;;;;;;;;;5000524;28;20109;-70
2021/04/03 11:35:06;;;;;;;11.15;2.58;;;;;;;;;;4997652;28;20030;-72
2021/04/03 11:37:32;;;;;;;16.65;3.35;;;;;;;;;;5002256;28;20034;-72
2021/04/03 11:40:00;;;;;;;12.93;3.30;;;;;;;;;;4997936;28;20034;-71
2021/04/03 11:42:26;;;;;;;14.75;4.15;;;;;;;;;;4997956;28;20022;-71
2021/04/03 11:44:51;;;;;;;17.83;3.72;;;;;;;;;;5000184;28;20022;-71
2021/04/03 11:47:17;;;;;;;17.88;3.75;;;;;;;;;;4992453;28;20100;-71
2021/04/03 11:49:43;;;;;;;14.40;3.30;;;;;;;;;;5001398;28;20398;-71
2021/04/03 11:52:09;;;;;;;21.38;4.82;;;;;;;;;;4992001;28;20037;-71
2021/04/03 11:54:35;;;;;;;15.35;4.18;;;;;;;;;;4993461;28;20022;-71
2021/04/03 11:57:03;;;;;;;17.73;4.72;;;;;;;;;;4994330;28;20209;-71
2021/04/03 11:59:29;;;;;;;21.65;4.75;;;;;;;;;;4989345;28;20108;-71
2021/04/03 12:01:57;;;;;;;18.65;4.50;;;;;;;;;;4996078;28;20834;-71
2021/04/03 12:04:23;;;;;;;12.57;3.35;;;;;;;;;;4992730;28;20072;-71
2021/04/03 12:06:49;;;;;;;16.25;3.08;;;;;;;;;;4993346;28;20072;-71
2021/04/03 12:09:15;;;;;;;12.52;3.42;;;;;;;;;;4989874;28;20853;-71
2021/04/03 12:11:41;;;;;;;14.15;4.03;;;;;;;;;;4990237;28;20099;-70
2021/04/03 12:14:06;;;;;;;14.57;4.05;;;;;;;;;;4995515;28;20096;-71
2021/04/03 12:16:33;;;;;;;16.02;3.28;;;;;;;;;;5001623;28;20037;-71
2021/04/03 12:19:00;;;;;;;16.13;3.20;;;;;;;;;;4996625;28;20022;-72
2021/04/03 12:21:26;;;;;;;15.40;3.15;;;;;;;;;;4991826;28;20037;-72
2021/04/03 12:23:52;;;;;;;23.98;4.57;;;;;;;;;;4997327;28;20051;-71
2021/04/03 12:26:18;;;;;;;15.82;3.75;;;;;;;;;;4994090;28;20033;-72
2021/04/03 12:28:44;;;;;;;16.17;4.03;;;;;;;;;;4992899;28;20509;-71
2021/04/03 12:31:10;;;;;;;16.08;3.20;;;;;;;;;;4995749;28;20431;-72
2021/04/03 12:33:36;;;;;;;17.23;3.80;;;;;;;;;;4995211;28;20113;-72
2021/04/03 12:36:02;;;;;;;16.55;3.95;;;;;;;;;;4992740;28;20137;-72
2021/04/03 12:38:28;;;;;;;11.68;3.10;;;;;;;;;;4990382;28;20094;-72
2021/04/03 12:40:54;;;;;;;22.63;3.53;;;;;;;;;;4997584;28;20022;-72
2021/04/03 12:43:20;;;;;;;17.30;4.18;;;;;;;;;;4996673;28;20026;-72
2021/04/03 12:45:46;;;;;;;18.38;3.65;;;;;;;;;;4995333;28;20068;-72
2021/04/03 12:48:12;;;;;;;19.75;3.38;;;;;;;;;;4994062;28;20030;-74
2021/04/03 12:50:38;;;;;;;18.77;4.63;;;;;;;;;;4996788;28;20045;-71
2021/04/03 12:53:04;;;;;;;20.95;4.93;;;;;;;;;;4998835;28;20060;-72
2021/04/03 12:55:30;;;;;;;20.67;4.30;;;;;;;;;;5000370;28;20487;-72
2021/04/03 12:57:56;;;;;;;15.65;3.60;;;;;;;;;;4999197;28;20030;-72
2021/04/03 13:00:22;;;;;;;20.40;4.53;;;;;;;;;;4998793;28;20112;-72
2021/04/03 13:02:48;;;;;;;16.88;3.78;;;;;;;;;;5004476;28;20038;-72
2021/04/03 13:05:14;;;;;;;15.50;3.53;;;;;;;;;;5009812;28;20434;-72
2021/04/03 13:07:40;;;;;;;19.55;4.03;;;;;;;;;;5005840;28;20394;-73
2021/04/03 13:10:06;;;;;;;17.70;3.95;;;;;;;;;;5009598;28;20038;-71
2021/04/03 13:12:32;;;;;;;20.75;4.40;;;;;;;;;;5004757;28;20026;-73
2021/04/03 13:14:58;;;;;;;17.95;3.90;;;;;;;;;;5011418;28;20089;-71
2021/04/03 13:17:24;;;;;;;15.57;3.47;;;;;;;;;;5007566;28;20041;-72
2021/04/03 13:19:50;;;;;;;23.67;3.95;;;;;;;;;;5006582;28;20030;-71
2021/04/03 13:22:16;;;;;;;14.50;3.13;;;;;;;;;;5009416;28;20029;-71
2021/04/03 13:24:42;;;;;;;16.38;3.67;;;;;;;;;;5003014;28;20105;-71
2021/04/03 13:27:08;;;;;;;13.23;3.80;;;;;;;;;;4993821;28;20030;-71
2021/04/03 13:29:34;;;;;;;15.00;3.38;;;;;;;;;;5009973;28;20032;-71
2021/04/03 13:32:00;;;;;;;16.33;4.57;;;;;;;;;;5002641;28;20030;-71
2021/04/03 13:34:26;;;;;;;22.63;4.53;;;;;;;;;;5001820;28;20064;-70
2021/04/03 13:36:52;;;;;;;19.77;4.28;;;;;;;;;;5008736;28;20657;-72
2021/04/03 13:39:18;;;;;;;17.70;3.65;;;;;;;;;;5002404;28;20049;-70
2021/04/03 13:41:44;;;;;;;13.95;3.50;;;;;;;;;;5007214;28;20022;-70
2021/04/03 13:44:11;;;;;;;20.52;4.13;;;;;;;;;;5010745;28;20896;-70
2021/04/03 13:46:36;;;;;;;18.15;3.60;;;;;;;;;;5008618;28;20392;-70
2021/04/03 13:49:03;;;;;;;18.25;4.43;;;;;;;;;;5003982;28;20041;-70
2021/04/03 13:51:29;;;;;;;21.10;4.40;;;;;;;;;;5006151;28;20152;-70
2021/04/03 13:53:55;;;;;;;16.45;4.93;;;;;;;;;;5009146;28;20025;-71
2021/04/03 13:56:21;;;;;;;18.10;4.63;;;;;;;;;;5008603;28;20026;-71
2021/04/03 13:58:47;;;;;;;19.15;3.95;;;;;;;;;;5006057;28;20026;-70
2021/04/03 14:01:13;;;;;;;29.17;5.90;;;;;;;;;;5001534;28;20112;-70
2021/04/03 14:03:39;;;;;;;19.73;3.92;;;;;;;;;;5000521;28;20032;-71
2021/04/03 14:06:08;;;;;;;23.02;4.82;;;;;;;;;;5003243;28;20051;-70
2021/04/03 14:08:35;;;;;;;18.88;4.55;;;;;;;;;;4994298;28;20018;-72
2021/04/03 14:11:01;;;;;;;18.85;4.40;;;;;;;;;;4995212;28;20057;-70
2021/04/03 14:13:27;;;;;;;21.90;3.70;;;;;;;;;;4998066;28;20101;-70
2021/04/03 14:15:53;;;;;;;13.73;4.00;;;;;;;;;;4993548;28;20030;-70
2021/04/03 14:18:19;;;;;;;20.17;4.00;;;;;;;;;;4997699;28;20447;-70
2021/04/03 14:20:45;;;;;;;19.08;4.20;;;;;;;;;;4995973;28;20030;-70
2021/04/03 14:23:11;;;;;;;19.40;5.50;;;;;;;;;;4996058;28;20037;-70
2021/04/03 14:25:37;;;;;;;18.95;4.32;;;;;;;;;;4994096;28;20038;-70
2021/04/03 14:28:03;;;;;;;23.17;4.43;;;;;;;;;;4999113;28;20037;-70
2021/04/03 14:30:29;;;;;;;15.60;3.63;;;;;;;;;;5003525;28;20018;-70
2021/04/03 14:32:55;;;;;;;21.55;4.50;;;;;;;;;;5003935;28;20042;-71
2021/04/03 14:35:21;;;;;;;20.15;3.85;;;;;;;;;;5003555;28;20180;-70